createdAt,value
2017-11-09T00:00:56.763Z,98857.05
2017-11-09T00:03:26.517Z,98851.94
2017-11-09T00:06:01.966Z,98860.73
2017-11-09T00:08:32.312Z,98864.65
2017-11-09T00:11:02.325Z,98863.90
2017-11-09T00:13:32.450Z,98865.66
2017-11-09T00:16:03.276Z,98867.71
2017-11-09T00:18:37.886Z,98873.81
2017-11-09T00:21:08.252Z,98877.23
2017-11-09T00:23:39.479Z,98877.00
2017-11-09T00:26:09.624Z,98887.33
2017-11-09T00:28:40.654Z,98886.50
2017-11-09T00:31:10.761Z,98881.02
2017-11-09T00:33:40.647Z,98891.72
2017-11-09T00:36:10.726Z,98889.59
2017-11-09T00:38:40.838Z,98887.92
2017-11-09T00:41:11.067Z,98888.13
2017-11-09T00:43:41.703Z,98895.84
2017-11-09T00:46:11.708Z,98896.80
2017-11-09T00:48:42.053Z,98896.56
2017-11-09T00:51:11.996Z,98897.36
2017-11-09T00:53:42.266Z,98897.88
2017-11-09T00:56:11.969Z,98903.23
2017-11-09T00:58:41.967Z,98898.52
2017-11-09T01:01:11.867Z,98906.42
2017-11-09T01:03:41.920Z,98906.81
2017-11-09T01:06:11.924Z,98904.58
2017-11-09T01:08:41.866Z,98903.75
2017-11-09T01:11:12.420Z,98907.42
2017-11-09T01:13:42.471Z,98911.14
2017-11-09T01:16:12.424Z,98908.45
2017-11-09T01:18:42.352Z,98904.75
2017-11-09T01:21:12.875Z,98910.11
2017-11-09T01:23:42.928Z,98908.25
2017-11-09T01:26:12.900Z,98913.09
2017-11-09T01:28:42.767Z,98912.88
2017-11-09T01:31:13.041Z,98908.36
2017-11-09T01:33:42.899Z,98906.34
2017-11-09T01:36:12.592Z,98909.88
2017-11-09T01:38:42.582Z,98904.70
2017-11-09T01:41:12.601Z,98899.31
2017-11-09T01:43:42.386Z,98896.92
2017-11-09T01:46:13.539Z,98903.33
2017-11-09T01:51:44.755Z,98893.14
2017-11-09T01:54:14.752Z,98894.27
2017-11-09T01:56:44.923Z,98898.44
2017-11-09T01:59:14.845Z,98895.81
2017-11-09T02:01:44.820Z,98895.64
2017-11-09T02:04:14.941Z,98891.34
2017-11-09T02:06:44.688Z,98895.80
2017-11-09T02:09:14.637Z,98898.88
2017-11-09T02:11:44.672Z,98900.84
2017-11-09T02:14:14.379Z,98900.70
2017-11-09T02:16:44.309Z,98902.59
2017-11-09T02:19:13.922Z,98908.28
2017-11-09T02:21:43.735Z,98910.47
2017-11-09T02:24:13.127Z,98913.02
2017-11-09T02:26:42.728Z,98913.55
2017-11-09T02:29:12.668Z,98908.72
2017-11-09T02:31:42.267Z,98909.91
2017-11-09T02:34:11.904Z,98912.58
2017-11-09T02:36:42.289Z,98909.80
2017-11-09T02:39:12.024Z,98915.36
2017-11-09T02:41:42.722Z,98917.83
2017-11-09T02:44:12.665Z,98919.86
2017-11-09T02:46:42.549Z,98917.63
2017-11-09T02:49:12.449Z,98926.17
2017-11-09T02:51:42.628Z,98925.14
2017-11-09T02:54:11.939Z,98926.79
2017-11-09T02:56:41.928Z,98928.54
2017-11-09T02:59:11.913Z,98938.89
2017-11-09T03:01:41.601Z,98932.06
2017-11-09T03:04:12.515Z,98930.52
2017-11-09T03:06:42.476Z,98936.20
2017-11-09T03:09:12.597Z,98935.90
2017-11-09T03:11:42.583Z,98938.69
2017-11-09T03:14:12.521Z,98942.91
2017-11-09T03:16:42.249Z,98944.55
2017-11-09T03:19:12.339Z,98948.47
2017-11-09T03:21:42.296Z,98946.41
2017-11-09T03:24:12.260Z,98942.39
2017-11-09T03:26:42.261Z,98947.64
2017-11-09T03:29:12.563Z,98943.80
2017-11-09T03:31:42.474Z,98947.62
2017-11-09T03:34:12.489Z,98946.35
2017-11-09T03:36:43.252Z,98940.90
2017-11-09T03:39:13.396Z,98938.58
2017-11-09T03:41:43.351Z,98936.00
2017-11-09T03:44:13.191Z,98945.71
2017-11-09T03:46:43.217Z,98941.39
2017-11-09T03:49:13.261Z,98948.08
2017-11-09T03:51:43.257Z,98942.70
2017-11-09T03:54:13.185Z,98941.67
2017-11-09T03:56:43.462Z,98941.98
2017-11-09T03:59:13.770Z,98941.46
2017-11-09T04:04:18.325Z,98940.97
2017-11-09T04:06:48.215Z,98935.41
2017-11-09T04:09:18.770Z,98943.23
2017-11-09T04:11:48.820Z,98936.23
2017-11-09T04:14:18.726Z,98933.27
2017-11-09T04:16:48.868Z,98930.87
2017-11-09T04:19:18.945Z,98929.73
2017-11-09T04:21:48.821Z,98932.21
2017-11-09T04:24:18.683Z,98925.72
2017-11-09T04:26:48.579Z,98925.07
2017-11-09T04:29:18.911Z,98930.09
2017-11-09T04:31:48.847Z,98931.50
2017-11-09T04:34:18.983Z,98937.99
2017-11-09T04:36:50.701Z,98937.16
2017-11-09T04:39:24.809Z,98935.93
2017-11-09T04:41:54.749Z,98938.44
2017-11-09T04:44:24.761Z,98938.44
2017-11-09T04:46:55.473Z,98934.34
2017-11-09T04:49:25.427Z,98943.82
2017-11-09T04:51:55.382Z,98942.14
2017-11-09T04:54:25.106Z,98941.63
2017-11-09T04:56:54.891Z,98944.34
2017-11-09T04:59:24.798Z,98953.75
2017-11-09T05:01:54.956Z,98950.08
2017-11-09T05:04:25.319Z,98953.34
2017-11-09T05:06:55.213Z,98961.52
2017-11-09T05:09:25.182Z,98960.38
2017-11-09T05:11:55.120Z,98965.19
2017-11-09T05:14:25.540Z,98960.42
2017-11-09T05:16:55.547Z,98963.14
2017-11-09T05:19:25.495Z,98961.80
2017-11-09T05:21:55.929Z,98964.89
2017-11-09T05:24:30.280Z,98954.45
2017-11-09T05:27:01.837Z,98960.35
2017-11-09T05:29:34.269Z,98957.47
2017-11-09T05:32:05.079Z,98966.64
2017-11-09T05:34:35.290Z,98966.36
2017-11-09T05:37:05.248Z,98970.81
2017-11-09T05:39:35.183Z,98964.05
2017-11-09T05:42:05.291Z,98971.25
2017-11-09T05:44:35.830Z,98974.70
2017-11-09T05:47:06.610Z,98975.42
2017-11-09T05:49:47.563Z,98974.39
2017-11-09T05:52:17.625Z,98983.47
2017-11-09T05:54:47.687Z,98981.61
2017-11-09T05:57:17.748Z,98975.45
2017-11-09T05:59:47.752Z,98987.53
2017-11-09T06:02:18.883Z,98992.09
2017-11-09T06:04:48.953Z,98988.48
2017-11-09T06:07:18.975Z,98995.87
2017-11-09T06:09:48.744Z,98994.98
2017-11-09T06:12:19.361Z,98997.98
2017-11-09T06:14:49.977Z,99005.43
2017-11-09T06:17:19.761Z,99000.02
2017-11-09T06:19:50.515Z,99003.40
2017-11-09T06:22:21.240Z,99004.45
2017-11-09T06:24:51.056Z,99002.81
2017-11-09T06:27:20.863Z,99010.69
2017-11-09T06:29:50.773Z,99017.36
2017-11-09T06:32:20.572Z,99017.36
2017-11-09T06:34:50.359Z,99018.45
2017-11-09T06:37:20.476Z,99019.57
2017-11-09T06:39:50.316Z,99025.19
2017-11-09T06:42:20.163Z,99020.24
2017-11-09T06:44:50.733Z,99019.63
2017-11-09T06:47:20.519Z,99022.07
2017-11-09T06:49:50.485Z,99033.52
2017-11-09T06:52:20.650Z,99030.59
2017-11-09T06:54:50.519Z,99033.22
2017-11-09T06:57:20.712Z,99036.86
2017-11-09T06:59:51.249Z,99038.95
2017-11-09T07:02:21.208Z,99042.05
2017-11-09T07:04:51.132Z,99047.55
2017-11-09T07:07:20.972Z,99052.23
2017-11-09T07:09:50.804Z,99055.18
2017-11-09T07:12:20.592Z,99052.04
2017-11-09T07:14:50.446Z,99043.30
2017-11-09T07:17:20.502Z,99049.77
2017-11-09T07:19:50.395Z,99061.91
2017-11-09T07:22:20.512Z,99061.81
2017-11-09T07:24:50.329Z,99061.56
2017-11-09T07:27:20.176Z,99053.97
2017-11-09T07:29:50.007Z,99056.34
2017-11-09T07:32:19.865Z,99054.19
2017-11-09T07:34:50.678Z,99054.59
2017-11-09T07:37:20.581Z,99060.23
2017-11-09T07:39:50.421Z,99059.15
2017-11-09T07:42:20.218Z,99063.92
2017-11-09T07:44:50.151Z,99069.72
2017-11-09T07:47:20.025Z,99061.77
2017-11-09T07:49:49.802Z,99066.73
2017-11-09T07:52:19.883Z,99068.12
2017-11-09T07:54:49.663Z,99071.53
2017-11-09T07:57:19.488Z,99071.75
2017-11-09T07:59:49.300Z,99072.50
2017-11-09T08:02:19.140Z,99080.01
2017-11-09T08:04:49.179Z,99073.36
2017-11-09T08:07:19.136Z,99080.28
2017-11-09T08:09:49.012Z,99077.49
2017-11-09T08:12:18.854Z,99084.98
2017-11-09T08:14:48.708Z,99085.71
2017-11-09T08:17:18.671Z,99091.86
2017-11-09T08:19:52.490Z,99093.48
2017-11-09T08:22:22.390Z,99095.64
2017-11-09T08:24:54.825Z,99095.92
2017-11-09T08:27:28.145Z,99095.69
2017-11-09T08:30:05.602Z,99092.39
2017-11-09T08:32:38.384Z,99087.70
2017-11-09T08:35:08.927Z,99091.65
2017-11-09T08:37:38.991Z,99097.30
2017-11-09T08:40:09.898Z,99092.31
2017-11-09T08:42:47.454Z,99094.41
2017-11-09T08:45:24.628Z,99097.08
2017-11-09T08:48:00.590Z,99095.18
2017-11-09T08:53:17.725Z,99098.22
2017-11-09T08:55:47.969Z,99101.67
2017-11-09T08:58:17.761Z,99109.68
2017-11-09T09:01:07.235Z,99109.30
2017-11-09T09:03:37.831Z,99116.87
2017-11-09T09:06:11.488Z,99115.19
2017-11-09T09:08:43.607Z,99111.01
2017-11-09T09:11:18.783Z,99110.23
2017-11-09T09:13:49.373Z,99116.47
2017-11-09T09:16:20.831Z,99107.47
2017-11-09T09:18:55.204Z,99114.91
2017-11-09T09:21:27.715Z,99108.91
2017-11-09T09:24:03.898Z,99117.81
2017-11-09T09:33:31.384Z,99112.93
2017-11-09T09:38:55.288Z,99114.38
2017-11-09T09:44:10.007Z,99115.48
2017-11-09T09:46:41.633Z,99123.40
2017-11-09T09:49:26.369Z,99125.84
2017-11-09T10:00:52.577Z,99126.02
2017-11-09T10:03:22.166Z,99128.52
2017-11-09T10:05:52.895Z,99128.02
2017-11-09T10:08:22.536Z,99122.53
2017-11-09T10:10:52.274Z,99124.10
2017-11-09T10:13:21.930Z,99121.62
2017-11-09T10:15:51.603Z,99122.90
2017-11-09T10:18:21.271Z,99114.21
2017-11-09T10:20:50.938Z,99112.46
2017-11-09T10:23:21.516Z,99112.14
2017-11-09T10:25:51.057Z,99109.80
2017-11-09T10:28:20.725Z,99113.03
2017-11-09T10:30:50.409Z,99108.73
2017-11-09T10:33:21.810Z,99106.16
2017-11-09T10:35:51.438Z,99113.05
2017-11-09T10:38:21.035Z,99112.49
2017-11-09T10:40:50.678Z,99106.88
2017-11-09T10:43:20.724Z,99106.80
2017-11-09T10:45:50.812Z,99115.34
2017-11-09T10:48:20.360Z,99103.05
2017-11-09T10:50:50.153Z,99106.58
2017-11-09T10:53:19.857Z,99103.14
2017-11-09T10:55:49.560Z,99106.11
2017-11-09T10:58:19.140Z,99099.77
2017-11-09T11:00:48.470Z,99099.17
2017-11-09T11:03:17.972Z,99095.45
2017-11-09T11:05:47.805Z,99101.56
2017-11-09T11:08:17.391Z,99095.04
2017-11-09T11:10:50.829Z,99092.69
2017-11-09T11:13:20.744Z,99089.90
2017-11-09T11:15:50.231Z,99088.91
2017-11-09T11:18:19.750Z,99087.88
2017-11-09T11:20:49.368Z,99091.27
2017-11-09T11:23:18.964Z,99090.23
2017-11-09T11:25:48.587Z,99085.47
2017-11-09T11:28:18.417Z,99081.27
2017-11-09T11:30:48.321Z,99081.17
2017-11-09T11:33:18.131Z,99085.59
2017-11-09T11:35:52.308Z,99082.17
2017-11-09T11:38:23.274Z,99079.52
2017-11-09T11:40:53.421Z,99074.28
2017-11-09T11:43:23.684Z,99070.81
2017-11-09T11:45:54.367Z,99076.70
2017-11-09T11:48:24.270Z,99072.87
2017-11-09T11:50:54.341Z,99069.17
2017-11-09T11:53:24.364Z,99075.05
2017-11-09T11:55:54.171Z,99068.64
2017-11-09T11:58:23.969Z,99071.71
2017-11-09T12:00:53.577Z,99068.38
2017-11-09T12:03:23.347Z,99058.80
2017-11-09T12:05:53.148Z,99064.70
2017-11-09T12:08:43.727Z,99069.45
2017-11-09T12:11:13.563Z,99068.84
2017-11-09T12:13:43.329Z,99061.14
2017-11-09T12:16:13.177Z,99070.41
2017-11-09T12:18:42.956Z,99072.81
2017-11-09T12:21:12.786Z,99069.81
2017-11-09T12:23:46.549Z,99068.17
2017-11-09T12:26:17.345Z,99067.62
2017-11-09T12:28:46.972Z,99069.88
2017-11-09T12:31:16.797Z,99071.02
2017-11-09T12:33:47.061Z,99067.91
2017-11-09T12:36:20.601Z,99066.70
2017-11-09T12:38:50.434Z,99075.43
2017-11-09T12:41:20.421Z,99067.64
2017-11-09T12:43:50.227Z,99075.20
2017-11-09T12:46:19.811Z,99072.06
2017-11-09T12:48:49.570Z,99074.67
2017-11-09T12:51:19.804Z,99065.86
2017-11-09T12:53:50.030Z,99064.05
2017-11-09T12:56:19.823Z,99066.87
2017-11-09T12:58:49.595Z,99067.79
2017-11-09T13:01:19.357Z,99068.98
2017-11-09T13:03:49.180Z,99065.75
2017-11-09T13:06:19.330Z,99076.16
2017-11-09T13:08:49.102Z,99069.31
2017-11-09T13:11:18.782Z,99070.71
2017-11-09T13:13:48.363Z,99065.40
2017-11-09T13:16:17.992Z,99065.09
2017-11-09T13:18:47.593Z,99067.78
2017-11-09T13:21:18.041Z,99065.28
2017-11-09T13:23:47.848Z,99062.61
2017-11-09T13:26:18.151Z,99064.14
2017-11-09T13:28:47.927Z,99065.97
2017-11-09T13:31:17.809Z,99064.48
2017-11-09T13:33:47.600Z,99063.95
2017-11-09T13:36:17.518Z,99070.77
2017-11-09T13:38:47.300Z,99072.73
2017-11-09T13:41:21.434Z,99079.14
2017-11-09T13:43:51.837Z,99072.28
2017-11-09T13:46:21.595Z,99072.13
2017-11-09T13:48:51.492Z,99066.48
2017-11-09T13:51:21.267Z,99073.03
2017-11-09T13:53:51.306Z,99076.22
2017-11-09T13:56:21.073Z,99065.80
2017-11-09T13:58:50.905Z,99072.69
2017-11-09T14:01:21.471Z,99068.19
2017-11-09T14:03:51.273Z,99071.07
2017-11-09T14:06:21.182Z,99076.82
2017-11-09T14:08:50.996Z,99082.62
2017-11-09T14:11:20.778Z,99083.38
2017-11-09T14:13:50.566Z,99074.36
2017-11-09T14:16:20.334Z,99077.48
2017-11-09T14:18:50.161Z,99076.13
2017-11-09T14:21:20.595Z,99081.37
2017-11-09T14:23:50.267Z,99071.59
2017-11-09T14:26:20.057Z,99080.61
2017-11-09T14:28:49.863Z,99084.56
2017-11-09T14:31:19.646Z,99082.64
2017-11-09T14:33:49.430Z,99079.44
2017-11-09T14:36:19.236Z,99088.98
2017-11-09T14:38:51.325Z,99088.33
2017-11-09T14:41:21.883Z,99089.83
2017-11-09T14:43:51.646Z,99091.12
2017-11-09T14:46:21.424Z,99089.95
2017-11-09T14:48:51.206Z,99093.47
2017-11-09T14:51:20.969Z,99092.69
2017-11-09T14:53:50.741Z,99093.45
2017-11-09T14:56:20.497Z,99098.42
2017-11-09T14:58:50.263Z,99103.06
2017-11-09T15:01:20.014Z,99112.13
2017-11-09T15:03:51.524Z,99107.63
2017-11-09T15:06:21.962Z,99110.84
2017-11-09T15:08:51.783Z,99115.52
2017-11-09T15:11:21.271Z,99119.89
2017-11-09T15:13:51.044Z,99115.03
2017-11-09T15:16:20.852Z,99111.05
2017-11-09T15:18:50.742Z,99114.79
2017-11-09T15:21:20.511Z,99121.68
2017-11-09T15:23:50.129Z,99122.89
2017-11-09T15:26:21.534Z,99120.28
2017-11-09T15:28:51.407Z,99122.25
2017-11-09T15:31:21.044Z,99125.77
2017-11-09T15:33:50.685Z,99125.52
2017-11-09T15:36:21.302Z,99128.48
2017-11-09T15:38:51.065Z,99123.46
2017-11-09T15:41:20.840Z,99134.80
2017-11-09T15:43:51.061Z,99133.97
2017-11-09T15:46:20.840Z,99123.12
2017-11-09T15:48:50.591Z,99133.05
2017-11-09T15:51:20.608Z,99136.61
2017-11-09T15:53:50.477Z,99139.52
2017-11-09T15:56:20.583Z,99136.73
2017-11-09T16:02:51.670Z,99137.96
2017-11-09T16:05:21.450Z,99141.20
2017-11-09T16:07:51.289Z,99130.19
2017-11-09T16:10:21.076Z,99129.11
2017-11-09T16:12:50.886Z,99135.58
2017-11-09T16:15:20.654Z,99136.61
2017-11-09T16:17:50.409Z,99137.91
2017-11-09T16:20:22.933Z,99140.86
2017-11-09T16:22:52.859Z,99146.81
2017-11-09T16:25:22.693Z,99147.77
2017-11-09T16:27:52.751Z,99150.11
2017-11-09T16:30:22.577Z,99146.55
2017-11-09T16:32:52.428Z,99153.10
2017-11-09T16:35:22.240Z,99145.30
2017-11-09T16:37:52.006Z,99153.47
2017-11-09T16:40:21.823Z,99153.45
2017-11-09T16:42:51.700Z,99156.20
2017-11-09T16:45:22.851Z,99159.09
2017-11-09T16:47:52.620Z,99152.31
2017-11-09T16:50:22.421Z,99164.72
2017-11-09T16:52:58.854Z,99165.55
2017-11-09T16:55:29.186Z,99163.59
2017-11-09T16:57:59.118Z,99166.56
2017-11-09T17:00:28.900Z,99165.36
2017-11-09T17:02:58.866Z,99167.33
2017-11-09T17:05:28.641Z,99167.23
2017-11-09T17:08:02.498Z,99169.50
2017-11-09T17:10:32.324Z,99164.58
2017-11-09T17:13:02.083Z,99170.69
2017-11-09T17:15:32.065Z,99166.55
2017-11-09T17:18:01.892Z,99168.83
2017-11-09T17:20:32.215Z,99171.50
2017-11-09T17:23:02.105Z,99171.13
2017-11-09T17:25:31.854Z,99168.63
2017-11-09T17:28:01.598Z,99175.50
2017-11-09T17:30:31.370Z,99175.09
2017-11-09T17:33:01.162Z,99172.30
2017-11-09T17:35:30.938Z,99176.78
2017-11-09T17:38:00.694Z,99176.43
2017-11-09T17:40:30.799Z,99173.64
2017-11-09T17:43:00.561Z,99180.98
2017-11-09T17:45:30.347Z,99177.42
2017-11-09T17:48:00.097Z,99186.66
2017-11-09T17:50:29.868Z,99183.25
2017-11-09T17:52:59.633Z,99185.59
2017-11-09T17:55:29.396Z,99192.28
2017-11-09T17:58:05.849Z,99190.98
2017-11-09T18:00:35.599Z,99196.88
2017-11-09T18:03:05.226Z,99202.55
2017-11-09T18:05:34.987Z,99198.08
2017-11-09T18:08:04.720Z,99202.03
2017-11-09T18:10:34.510Z,99206.47
2017-11-09T18:13:04.273Z,99205.51
2017-11-09T18:15:34.075Z,99208.30
2017-11-09T18:18:03.873Z,99207.47
2017-11-09T18:20:33.631Z,99214.02
2017-11-09T18:23:03.394Z,99206.41
2017-11-09T18:25:33.168Z,99213.81
2017-11-09T18:28:02.936Z,99216.22
2017-11-09T18:30:32.703Z,99209.23
2017-11-09T18:33:03.232Z,99212.19
2017-11-09T18:35:33.019Z,99210.70
2017-11-09T18:38:02.784Z,99209.36
2017-11-09T18:40:32.553Z,99215.36
2017-11-09T18:43:02.425Z,99224.37
2017-11-09T18:45:32.326Z,99219.90
2017-11-09T18:48:02.259Z,99223.31
2017-11-09T18:50:32.071Z,99217.25
2017-11-09T18:53:01.894Z,99221.63
2017-11-09T18:55:31.688Z,99222.76
2017-11-09T18:58:01.467Z,99227.75
2017-11-09T19:00:33.658Z,99227.05
2017-11-09T19:03:03.431Z,99228.33
2017-11-09T19:05:33.555Z,99220.69
2017-11-09T19:08:03.817Z,99224.98
2017-11-09T19:10:33.621Z,99232.93
2017-11-09T19:13:03.373Z,99238.95
2017-11-09T19:15:33.132Z,99241.91
2017-11-09T19:18:02.963Z,99239.50
2017-11-09T19:20:32.771Z,99243.66
2017-11-09T19:23:02.596Z,99243.59
2017-11-09T19:25:32.820Z,99242.20
2017-11-09T19:28:02.768Z,99238.31
2017-11-09T19:30:32.534Z,99238.58
2017-11-09T19:33:02.283Z,99244.28
2017-11-09T19:35:32.011Z,99248.08
2017-11-09T19:38:01.910Z,99241.98
2017-11-09T19:40:31.767Z,99241.66
2017-11-09T19:43:03.539Z,99239.20
2017-11-09T19:45:33.645Z,99244.37
2017-11-09T19:48:03.402Z,99241.16
2017-11-09T19:50:33.178Z,99236.55
2017-11-09T19:53:05.087Z,99237.41
2017-11-09T19:55:34.833Z,99233.66
2017-11-09T19:58:04.571Z,99235.05
2017-11-09T20:00:34.334Z,99241.13
2017-11-09T20:03:04.126Z,99240.67
2017-11-09T20:05:34.805Z,99243.77
2017-11-09T20:08:04.494Z,99238.84
2017-11-09T20:10:34.429Z,99238.63
2017-11-09T20:13:04.106Z,99236.55
2017-11-09T20:15:34.000Z,99238.35
2017-11-09T20:18:04.111Z,99239.48
2017-11-09T20:20:34.071Z,99242.69
2017-11-09T20:23:03.747Z,99245.48
2017-11-09T20:25:34.074Z,99245.43
2017-11-09T20:28:04.032Z,99248.22
2017-11-09T20:30:33.905Z,99244.88
2017-11-09T20:33:03.966Z,99249.84
2017-11-09T20:35:33.982Z,99247.70
2017-11-09T20:38:04.150Z,99237.04
2017-11-09T20:40:34.130Z,99239.34
2017-11-09T20:43:04.084Z,99241.78
2017-11-09T20:45:34.034Z,99246.33
2017-11-09T20:48:03.891Z,99248.39
2017-11-09T20:50:34.020Z,99252.94
2017-11-09T20:53:03.883Z,99250.59
2017-11-09T20:55:33.696Z,99251.80
2017-11-09T20:58:03.780Z,99257.17
2017-11-09T21:00:33.633Z,99258.22
2017-11-09T21:03:03.547Z,99260.19
2017-11-09T21:05:33.473Z,99262.30
2017-11-09T21:08:03.403Z,99260.72
2017-11-09T21:10:33.407Z,99263.23
2017-11-09T21:13:03.459Z,99260.59
2017-11-09T21:15:33.473Z,99262.45
2017-11-09T21:18:06.369Z,99263.72
2017-11-09T21:20:36.321Z,99255.44
2017-11-09T21:23:06.083Z,99257.42
2017-11-09T21:25:35.846Z,99257.06
2017-11-09T21:28:05.731Z,99262.81
2017-11-09T21:30:35.468Z,99261.64
2017-11-09T21:33:05.231Z,99260.41
2017-11-09T21:35:34.994Z,99262.83
2017-11-09T21:38:05.022Z,99259.45
2017-11-09T21:40:34.762Z,99261.98
2017-11-09T21:43:04.530Z,99258.71
2017-11-09T21:45:34.275Z,99256.03
2017-11-09T21:48:04.035Z,99263.23
2017-11-09T21:50:33.775Z,99266.42
2017-11-09T21:53:03.663Z,99262.69
2017-11-09T21:55:33.433Z,99268.86
2017-11-09T21:58:06.106Z,99265.80
2017-11-09T22:00:43.036Z,99256.88
2017-11-09T22:03:14.941Z,99259.98
2017-11-09T22:05:44.946Z,99264.33
2017-11-09T22:08:14.770Z,99267.72
2017-11-09T22:10:44.580Z,99269.14
2017-11-09T22:13:14.416Z,99263.80
2017-11-09T22:15:44.355Z,99263.41
2017-11-09T22:18:14.490Z,99262.06
2017-11-09T22:20:44.718Z,99264.91
2017-11-09T22:23:14.461Z,99257.09
2017-11-09T22:25:44.219Z,99258.35
2017-11-09T22:28:14.175Z,99253.47
2017-11-09T22:30:44.007Z,99253.45
2017-11-09T22:33:13.571Z,99250.62
2017-11-09T22:35:43.166Z,99251.08
2017-11-09T22:38:13.351Z,99253.15
2017-11-09T22:40:43.310Z,99249.01
2017-11-09T22:43:13.283Z,99244.49
2017-11-09T22:45:43.227Z,99247.55
2017-11-09T22:48:13.123Z,99248.75
2017-11-09T22:50:44.196Z,99239.36
2017-11-09T22:53:18.745Z,99243.77
2017-11-09T22:55:48.608Z,99245.44
2017-11-09T22:58:19.599Z,99244.72
2017-11-09T23:00:49.980Z,99248.56
2017-11-09T23:03:19.853Z,99248.05
2017-11-09T23:05:50.075Z,99248.70
2017-11-09T23:08:20.595Z,99248.13
2017-11-09T23:10:50.327Z,99253.94
2017-11-09T23:13:21.498Z,99246.94
2017-11-09T23:15:52.022Z,99250.33
2017-11-09T23:18:22.629Z,99248.37
2017-11-09T23:20:52.402Z,99237.92
2017-11-09T23:23:22.604Z,99238.72
2017-11-09T23:25:52.518Z,99245.63
2017-11-09T23:28:23.093Z,99239.26
2017-11-09T23:30:54.803Z,99237.89
2017-11-09T23:33:24.817Z,99240.09
2017-11-09T23:35:54.840Z,99230.48
2017-11-09T23:38:24.780Z,99233.33
2017-11-09T23:40:54.688Z,99237.53
2017-11-09T23:43:24.910Z,99231.16
2017-11-09T23:45:54.840Z,99232.85
2017-11-09T23:48:25.087Z,99235.22
2017-11-09T23:50:54.966Z,99234.91
2017-11-09T23:53:25.110Z,99228.72
2017-11-09T23:55:55.259Z,99234.00
2017-11-09T23:58:25.199Z,99237.13
